sensor_id;sensor_type;location;lat;lon;timestamp;P1;durP1;ratioP1;P2;durP2;ratioP2
58898;SDS011;44680;48.342;7.856;2022-12-01T00:01:20;23.52;;;12.00;;
58898;SDS011;44680;48.342;7.856;2022-12-01T00:03:46;27.00;;;12.82;;
58898;SDS011;44680;48.342;7.856;2022-12-01T00:06:12;28.02;;;13.43;;
58898;SDS011;44680;48.342;7.856;2022-12-01T00:08:42;25.08;;;12.35;;
58898;SDS011;44680;48.342;7.856;2022-12-01T00:11:28;26.27;;;12.07;;
58898;SDS011;44680;48.342;7.856;2022-12-01T00:13:54;26.17;;;12.15;;
58898;SDS011;44680;48.342;7.856;2022-12-01T00:16:19;24.70;;;11.75;;
58898;SDS011;44680;48.342;7.856;2022-12-01T00:18:47;25.30;;;11.80;;
58898;SDS011;44680;48.342;7.856;2022-12-01T00:21:13;26.40;;;12.98;;
58898;SDS011;44680;48.342;7.856;2022-12-01T00:23:43;26.95;;;12.85;;
58898;SDS011;44680;48.342;7.856;2022-12-01T00:26:12;26.95;;;12.02;;
58898;SDS011;44680;48.342;7.856;2022-12-01T00:28:38;29.73;;;13.85;;
58898;SDS011;44680;48.342;7.856;2022-12-01T00:31:07;25.27;;;12.30;;
58898;SDS011;44680;48.342;7.856;2022-12-01T00:33:36;25.55;;;12.27;;
58898;SDS011;44680;48.342;7.856;2022-12-01T00:36:01;25.63;;;12.02;;
58898;SDS011;44680;48.342;7.856;2022-12-01T00:38:27;26.20;;;12.95;;
58898;SDS011;44680;48.342;7.856;2022-12-01T00:40:53;25.98;;;12.95;;
58898;SDS011;44680;48.342;7.856;2022-12-01T00:43:18;28.05;;;13.30;;
58898;SDS011;44680;48.342;7.856;2022-12-01T00:45:43;26.63;;;12.73;;
58898;SDS011;44680;48.342;7.856;2022-12-01T00:48:09;26.17;;;12.55;;
58898;SDS011;44680;48.342;7.856;2022-12-01T00:50:34;28.15;;;13.35;;
58898;SDS011;44680;48.342;7.856;2022-12-01T00:52:59;27.52;;;12.45;;
58898;SDS011;44680;48.342;7.856;2022-12-01T00:55:25;26.88;;;12.85;;
58898;SDS011;44680;48.342;7.856;2022-12-01T00:57:50;31.77;;;13.32;;
58898;SDS011;44680;48.342;7.856;2022-12-01T01:00:16;29.33;;;13.18;;
58898;SDS011;44680;48.342;7.856;2022-12-01T01:02:41;28.63;;;12.65;;
58898;SDS011;44680;48.342;7.856;2022-12-01T01:05:07;30.58;;;14.20;;
58898;SDS011;44680;48.342;7.856;2022-12-01T01:07:32;31.48;;;14.50;;
58898;SDS011;44680;48.342;7.856;2022-12-01T01:09:57;28.00;;;12.65;;
58898;SDS011;44680;48.342;7.856;2022-12-01T01:12:23;30.20;;;13.25;;
58898;SDS011;44680;48.342;7.856;2022-12-01T01:14:48;29.10;;;13.18;;
58898;SDS011;44680;48.342;7.856;2022-12-01T01:17:13;29.50;;;12.77;;
58898;SDS011;44680;48.342;7.856;2022-12-01T01:19:39;28.92;;;13.00;;
58898;SDS011;44680;48.342;7.856;2022-12-01T01:22:04;28.13;;;12.50;;
58898;SDS011;44680;48.342;7.856;2022-12-01T01:24:29;29.40;;;12.57;;
58898;SDS011;44680;48.342;7.856;2022-12-01T01:26:55;28.45;;;12.40;;
58898;SDS011;44680;48.342;7.856;2022-12-01T01:29:20;33.55;;;14.52;;
58898;SDS011;44680;48.342;7.856;2022-12-01T01:31:45;29.55;;;13.85;;
58898;SDS011;44680;48.342;7.856;2022-12-01T01:34:11;31.10;;;14.27;;
58898;SDS011;44680;48.342;7.856;2022-12-01T01:36:36;33.45;;;14.18;;
58898;SDS011;44680;48.342;7.856;2022-12-01T01:39:02;30.33;;;13.50;;
58898;SDS011;44680;48.342;7.856;2022-12-01T01:41:27;27.52;;;12.85;;
58898;SDS011;44680;48.342;7.856;2022-12-01T01:43:57;36.65;;;15.48;;
58898;SDS011;44680;48.342;7.856;2022-12-01T01:46:24;31.88;;;14.32;;
58898;SDS011;44680;48.342;7.856;2022-12-01T01:51:31;28.88;;;12.30;;
58898;SDS011;44680;48.342;7.856;2022-12-01T01:54:00;31.42;;;13.20;;
58898;SDS011;44680;48.342;7.856;2022-12-01T01:56:28;31.88;;;13.30;;
58898;SDS011;44680;48.342;7.856;2022-12-01T01:58:53;28.70;;;13.75;;
58898;SDS011;44680;48.342;7.856;2022-12-01T02:01:19;29.48;;;13.65;;
58898;SDS011;44680;48.342;7.856;2022-12-01T02:03:44;30.40;;;12.88;;
58898;SDS011;44680;48.342;7.856;2022-12-01T02:06:10;29.50;;;12.35;;
58898;SDS011;44680;48.342;7.856;2022-12-01T02:08:35;32.60;;;13.02;;
58898;SDS011;44680;48.342;7.856;2022-12-01T02:18:54;30.80;;;13.40;;
58898;SDS011;44680;48.342;7.856;2022-12-01T02:27:46;31.60;;;13.85;;
58898;SDS011;44680;48.342;7.856;2022-12-01T02:30:16;30.48;;;13.38;;
58898;SDS011;44680;48.342;7.856;2022-12-01T02:33:32;31.33;;;13.60;;
58898;SDS011;44680;48.342;7.856;2022-12-01T02:36:20;31.50;;;13.77;;
58898;SDS011;44680;48.342;7.856;2022-12-01T02:39:07;29.05;;;12.60;;
58898;SDS011;44680;48.342;7.856;2022-12-01T02:41:39;29.05;;;12.57;;
58898;SDS011;44680;48.342;7.856;2022-12-01T02:44:10;29.75;;;12.75;;
58898;SDS011;44680;48.342;7.856;2022-12-01T02:46:42;29.00;;;12.40;;
58898;SDS011;44680;48.342;7.856;2022-12-01T02:49:13;28.33;;;12.70;;
58898;SDS011;44680;48.342;7.856;2022-12-01T02:51:40;27.77;;;11.88;;
58898;SDS011;44680;48.342;7.856;2022-12-01T02:54:11;29.13;;;11.65;;
58898;SDS011;44680;48.342;7.856;2022-12-01T02:56:37;25.83;;;11.85;;
58898;SDS011;44680;48.342;7.856;2022-12-01T02:59:09;29.95;;;13.32;;
58898;SDS011;44680;48.342;7.856;2022-12-01T03:01:48;28.42;;;12.45;;
58898;SDS011;44680;48.342;7.856;2022-12-01T03:12:47;28.65;;;11.10;;
58898;SDS011;44680;48.342;7.856;2022-12-01T03:23:02;27.13;;;11.40;;
58898;SDS011;44680;48.342;7.856;2022-12-01T03:25:31;26.80;;;10.48;;
58898;SDS011;44680;48.342;7.856;2022-12-01T03:27:57;26.38;;;10.55;;
58898;SDS011;44680;48.342;7.856;2022-12-01T03:30:23;27.92;;;11.32;;
58898;SDS011;44680;48.342;7.856;2022-12-01T03:32:53;26.40;;;11.00;;
58898;SDS011;44680;48.342;7.856;2022-12-01T03:35:27;25.83;;;10.68;;
58898;SDS011;44680;48.342;7.856;2022-12-01T03:38:07;23.23;;;10.02;;
58898;SDS011;44680;48.342;7.856;2022-12-01T03:40:34;27.67;;;11.25;;
58898;SDS011;44680;48.342;7.856;2022-12-01T03:43:02;23.90;;;11.07;;
58898;SDS011;44680;48.342;7.856;2022-12-01T03:48:22;22.70;;;9.80;;
58898;SDS011;44680;48.342;7.856;2022-12-01T03:56:16;26.05;;;9.73;;
58898;SDS011;44680;48.342;7.856;2022-12-01T03:58:44;21.83;;;8.13;;
58898;SDS011;44680;48.342;7.856;2022-12-01T04:01:11;25.85;;;10.45;;
58898;SDS011;44680;48.342;7.856;2022-12-01T04:03:37;23.83;;;9.90;;
58898;SDS011;44680;48.342;7.856;2022-12-01T04:06:03;26.08;;;10.00;;
58898;SDS011;44680;48.342;7.856;2022-12-01T04:08:28;20.60;;;9.18;;
58898;SDS011;44680;48.342;7.856;2022-12-01T04:10:54;18.02;;;8.18;;
58898;SDS011;44680;48.342;7.856;2022-12-01T04:13:20;18.63;;;8.70;;
58898;SDS011;44680;48.342;7.856;2022-12-01T04:15:50;16.42;;;8.20;;
58898;SDS011;44680;48.342;7.856;2022-12-01T04:18:16;16.98;;;8.07;;
58898;SDS011;44680;48.342;7.856;2022-12-01T04:20:42;20.10;;;9.10;;
58898;SDS011;44680;48.342;7.856;2022-12-01T04:23:09;21.08;;;8.40;;
58898;SDS011;44680;48.342;7.856;2022-12-01T04:25:34;22.48;;;8.68;;
58898;SDS011;44680;48.342;7.856;2022-12-01T04:28:00;20.15;;;8.07;;
58898;SDS011;44680;48.342;7.856;2022-12-01T04:30:25;18.40;;;7.97;;
58898;SDS011;44680;48.342;7.856;2022-12-01T04:32:50;20.88;;;9.55;;
58898;SDS011;44680;48.342;7.856;2022-12-01T04:35:15;21.88;;;9.43;;
58898;SDS011;44680;48.342;7.856;2022-12-01T04:37:41;22.92;;;10.30;;
58898;SDS011;44680;48.342;7.856;2022-12-01T04:40:06;21.58;;;9.50;;
58898;SDS011;44680;48.342;7.856;2022-12-01T04:42:32;26.13;;;11.20;;
58898;SDS011;44680;48.342;7.856;2022-12-01T04:44:58;23.85;;;11.35;;
58898;SDS011;44680;48.342;7.856;2022-12-01T04:47:23;24.38;;;10.98;;
58898;SDS011;44680;48.342;7.856;2022-12-01T04:49:48;24.88;;;11.07;;
58898;SDS011;44680;48.342;7.856;2022-12-01T04:52:14;28.08;;;12.18;;
58898;SDS011;44680;48.342;7.856;2022-12-01T04:54:39;26.67;;;11.38;;
58898;SDS011;44680;48.342;7.856;2022-12-01T04:57:05;30.02;;;11.30;;
58898;SDS011;44680;48.342;7.856;2022-12-01T04:59:30;25.48;;;11.10;;
58898;SDS011;44680;48.342;7.856;2022-12-01T05:01:55;25.02;;;11.50;;
58898;SDS011;44680;48.342;7.856;2022-12-01T05:04:21;27.48;;;11.35;;
58898;SDS011;44680;48.342;7.856;2022-12-01T05:06:46;26.15;;;11.35;;
58898;SDS011;44680;48.342;7.856;2022-12-01T05:09:13;27.17;;;11.65;;
58898;SDS011;44680;48.342;7.856;2022-12-01T05:11:39;26.27;;;12.02;;
58898;SDS011;44680;48.342;7.856;2022-12-01T05:14:04;26.75;;;12.18;;
58898;SDS011;44680;48.342;7.856;2022-12-01T05:16:30;24.27;;;10.52;;
58898;SDS011;44680;48.342;7.856;2022-12-01T05:18:58;27.25;;;12.05;;
58898;SDS011;44680;48.342;7.856;2022-12-01T05:21:44;25.65;;;11.48;;
58898;SDS011;44680;48.342;7.856;2022-12-01T05:24:10;23.75;;;10.80;;
58898;SDS011;44680;48.342;7.856;2022-12-01T05:26:36;28.70;;;11.85;;
58898;SDS011;44680;48.342;7.856;2022-12-01T05:29:02;26.50;;;12.60;;
58898;SDS011;44680;48.342;7.856;2022-12-01T05:31:28;27.27;;;11.80;;
58898;SDS011;44680;48.342;7.856;2022-12-01T05:33:54;26.00;;;11.50;;
58898;SDS011;44680;48.342;7.856;2022-12-01T05:36:19;25.08;;;10.88;;
58898;SDS011;44680;48.342;7.856;2022-12-01T05:38:44;28.30;;;12.77;;
58898;SDS011;44680;48.342;7.856;2022-12-01T05:41:09;25.77;;;12.15;;
58898;SDS011;44680;48.342;7.856;2022-12-01T05:43:35;28.00;;;12.15;;
58898;SDS011;44680;48.342;7.856;2022-12-01T05:46:00;28.05;;;12.52;;
58898;SDS011;44680;48.342;7.856;2022-12-01T05:48:25;27.30;;;11.75;;
58898;SDS011;44680;48.342;7.856;2022-12-01T05:50:51;24.58;;;11.15;;
58898;SDS011;44680;48.342;7.856;2022-12-01T05:53:16;25.40;;;11.98;;
58898;SDS011;44680;48.342;7.856;2022-12-01T05:55:42;24.48;;;10.98;;
58898;SDS011;44680;48.342;7.856;2022-12-01T05:58:07;27.40;;;11.75;;
58898;SDS011;44680;48.342;7.856;2022-12-01T06:00:33;24.80;;;11.40;;
58898;SDS011;44680;48.342;7.856;2022-12-01T06:02:59;26.40;;;11.63;;
58898;SDS011;44680;48.342;7.856;2022-12-01T06:05:24;26.83;;;11.57;;
58898;SDS011;44680;48.342;7.856;2022-12-01T06:07:49;26.20;;;12.38;;
58898;SDS011;44680;48.342;7.856;2022-12-01T06:10:15;25.27;;;11.88;;
58898;SDS011;44680;48.342;7.856;2022-12-01T06:12:40;26.95;;;11.65;;
58898;SDS011;44680;48.342;7.856;2022-12-01T06:15:06;26.15;;;12.05;;
58898;SDS011;44680;48.342;7.856;2022-12-01T06:17:32;24.67;;;11.70;;
58898;SDS011;44680;48.342;7.856;2022-12-01T06:19:57;25.92;;;11.98;;
58898;SDS011;44680;48.342;7.856;2022-12-01T06:22:23;27.80;;;12.10;;
58898;SDS011;44680;48.342;7.856;2022-12-01T06:24:48;27.23;;;12.30;;
58898;SDS011;44680;48.342;7.856;2022-12-01T06:27:13;25.50;;;11.00;;
58898;SDS011;44680;48.342;7.856;2022-12-01T06:29:39;28.13;;;12.70;;
58898;SDS011;44680;48.342;7.856;2022-12-01T06:32:04;31.70;;;15.13;;
58898;SDS011;44680;48.342;7.856;2022-12-01T06:34:29;47.42;;;22.95;;
58898;SDS011;44680;48.342;7.856;2022-12-01T06:36:55;36.00;;;17.23;;
58898;SDS011;44680;48.342;7.856;2022-12-01T06:39:20;29.15;;;14.88;;
58898;SDS011;44680;48.342;7.856;2022-12-01T06:41:45;27.60;;;12.98;;
58898;SDS011;44680;48.342;7.856;2022-12-01T06:44:11;30.40;;;12.90;;
58898;SDS011;44680;48.342;7.856;2022-12-01T06:46:37;27.60;;;13.20;;
58898;SDS011;44680;48.342;7.856;2022-12-01T06:49:02;29.80;;;12.90;;
58898;SDS011;44680;48.342;7.856;2022-12-01T06:51:28;27.85;;;12.98;;
58898;SDS011;44680;48.342;7.856;2022-12-01T06:53:54;29.33;;;14.13;;
58898;SDS011;44680;48.342;7.856;2022-12-01T06:56:20;28.60;;;13.35;;
58898;SDS011;44680;48.342;7.856;2022-12-01T06:58:47;28.27;;;13.00;;
58898;SDS011;44680;48.342;7.856;2022-12-01T07:01:13;29.08;;;14.05;;
58898;SDS011;44680;48.342;7.856;2022-12-01T07:03:38;28.05;;;13.00;;
58898;SDS011;44680;48.342;7.856;2022-12-01T07:06:04;29.42;;;13.05;;
58898;SDS011;44680;48.342;7.856;2022-12-01T07:08:30;27.35;;;12.98;;
58898;SDS011;44680;48.342;7.856;2022-12-01T07:10:59;29.33;;;13.90;;
58898;SDS011;44680;48.342;7.856;2022-12-01T07:13:26;28.95;;;13.40;;
58898;SDS011;44680;48.342;7.856;2022-12-01T07:15:52;29.17;;;13.20;;
58898;SDS011;44680;48.342;7.856;2022-12-01T07:18:17;30.42;;;13.75;;
58898;SDS011;44680;48.342;7.856;2022-12-01T07:20:42;29.95;;;13.55;;
58898;SDS011;44680;48.342;7.856;2022-12-01T07:23:08;28.02;;;14.18;;
58898;SDS011;44680;48.342;7.856;2022-12-01T07:25:33;29.70;;;13.35;;
58898;SDS011;44680;48.342;7.856;2022-12-01T07:27:58;34.92;;;13.60;;
58898;SDS011;44680;48.342;7.856;2022-12-01T07:30:24;32.58;;;14.55;;
58898;SDS011;44680;48.342;7.856;2022-12-01T07:32:49;27.92;;;12.40;;
58898;SDS011;44680;48.342;7.856;2022-12-01T07:35:14;31.48;;;14.23;;
58898;SDS011;44680;48.342;7.856;2022-12-01T07:37:40;31.83;;;15.13;;
58898;SDS011;44680;48.342;7.856;2022-12-01T07:40:05;30.83;;;13.80;;
58898;SDS011;44680;48.342;7.856;2022-12-01T07:42:31;28.92;;;14.00;;
58898;SDS011;44680;48.342;7.856;2022-12-01T07:44:59;27.58;;;13.07;;
58898;SDS011;44680;48.342;7.856;2022-12-01T07:47:27;30.20;;;14.68;;
58898;SDS011;44680;48.342;7.856;2022-12-01T07:49:55;29.98;;;13.20;;
58898;SDS011;44680;48.342;7.856;2022-12-01T07:52:23;29.27;;;13.88;;
58898;SDS011;44680;48.342;7.856;2022-12-01T07:54:48;31.92;;;15.52;;
58898;SDS011;44680;48.342;7.856;2022-12-01T07:57:14;30.50;;;14.18;;
58898;SDS011;44680;48.342;7.856;2022-12-01T07:59:39;30.70;;;14.23;;
58898;SDS011;44680;48.342;7.856;2022-12-01T08:02:05;31.92;;;14.85;;
58898;SDS011;44680;48.342;7.856;2022-12-01T08:04:32;28.95;;;14.32;;
58898;SDS011;44680;48.342;7.856;2022-12-01T08:06:57;31.45;;;14.27;;
58898;SDS011;44680;48.342;7.856;2022-12-01T08:09:22;31.77;;;15.40;;
58898;SDS011;44680;48.342;7.856;2022-12-01T08:11:48;34.13;;;15.27;;
58898;SDS011;44680;48.342;7.856;2022-12-01T08:14:13;33.08;;;15.80;;
58898;SDS011;44680;48.342;7.856;2022-12-01T08:16:38;38.05;;;17.92;;
58898;SDS011;44680;48.342;7.856;2022-12-01T08:19:04;34.10;;;15.80;;
58898;SDS011;44680;48.342;7.856;2022-12-01T08:21:29;34.65;;;16.45;;
58898;SDS011;44680;48.342;7.856;2022-12-01T08:23:55;33.38;;;16.52;;
58898;SDS011;44680;48.342;7.856;2022-12-01T08:26:21;36.47;;;17.42;;
58898;SDS011;44680;48.342;7.856;2022-12-01T08:28:47;35.30;;;17.75;;
58898;SDS011;44680;48.342;7.856;2022-12-01T08:31:14;32.00;;;15.50;;
58898;SDS011;44680;48.342;7.856;2022-12-01T08:33:45;33.85;;;16.02;;
58898;SDS011;44680;48.342;7.856;2022-12-01T08:36:11;31.63;;;15.00;;
58898;SDS011;44680;48.342;7.856;2022-12-01T08:38:36;33.17;;;15.38;;
58898;SDS011;44680;48.342;7.856;2022-12-01T08:41:06;30.88;;;14.65;;
58898;SDS011;44680;48.342;7.856;2022-12-01T08:43:32;39.83;;;18.25;;
58898;SDS011;44680;48.342;7.856;2022-12-01T08:46:00;38.63;;;18.65;;
58898;SDS011;44680;48.342;7.856;2022-12-01T08:48:26;31.38;;;14.63;;
58898;SDS011;44680;48.342;7.856;2022-12-01T08:51:16;32.90;;;15.23;;
58898;SDS011;44680;48.342;7.856;2022-12-01T08:53:45;34.50;;;15.02;;
58898;SDS011;44680;48.342;7.856;2022-12-01T08:56:13;29.85;;;14.13;;
58898;SDS011;44680;48.342;7.856;2022-12-01T08:58:58;30.15;;;13.77;;
58898;SDS011;44680;48.342;7.856;2022-12-01T09:01:24;29.85;;;14.18;;
58898;SDS011;44680;48.342;7.856;2022-12-01T09:03:50;30.92;;;13.77;;
58898;SDS011;44680;48.342;7.856;2022-12-01T09:06:33;32.90;;;14.65;;
58898;SDS011;44680;48.342;7.856;2022-12-01T09:09:02;30.20;;;15.13;;
58898;SDS011;44680;48.342;7.856;2022-12-01T09:11:27;30.02;;;14.82;;
58898;SDS011;44680;48.342;7.856;2022-12-01T09:13:53;34.72;;;15.27;;
58898;SDS011;44680;48.342;7.856;2022-12-01T09:16:18;31.65;;;16.27;;
58898;SDS011;44680;48.342;7.856;2022-12-01T09:18:44;32.78;;;15.32;;
58898;SDS011;44680;48.342;7.856;2022-12-01T09:21:11;31.67;;;14.70;;
58898;SDS011;44680;48.342;7.856;2022-12-01T09:23:38;32.60;;;15.48;;
58898;SDS011;44680;48.342;7.856;2022-12-01T09:26:04;33.65;;;16.77;;
58898;SDS011;44680;48.342;7.856;2022-12-01T09:28:30;31.38;;;15.90;;
58898;SDS011;44680;48.342;7.856;2022-12-01T09:30:55;33.20;;;15.80;;
58898;SDS011;44680;48.342;7.856;2022-12-01T09:33:20;35.20;;;16.58;;
58898;SDS011;44680;48.342;7.856;2022-12-01T09:35:46;34.83;;;16.38;;
58898;SDS011;44680;48.342;7.856;2022-12-01T09:38:11;35.03;;;16.55;;
58898;SDS011;44680;48.342;7.856;2022-12-01T09:40:38;34.00;;;16.65;;
58898;SDS011;44680;48.342;7.856;2022-12-01T09:43:09;33.55;;;16.00;;
58898;SDS011;44680;48.342;7.856;2022-12-01T09:45:59;34.33;;;15.88;;
58898;SDS011;44680;48.342;7.856;2022-12-01T09:48:28;39.47;;;16.70;;
58898;SDS011;44680;48.342;7.856;2022-12-01T09:51:09;33.58;;;16.20;;
58898;SDS011;44680;48.342;7.856;2022-12-01T09:53:37;33.90;;;14.85;;
58898;SDS011;44680;48.342;7.856;2022-12-01T09:56:03;34.67;;;15.13;;
58898;SDS011;44680;48.342;7.856;2022-12-01T09:58:29;31.10;;;15.57;;
58898;SDS011;44680;48.342;7.856;2022-12-01T10:00:55;33.72;;;15.73;;
58898;SDS011;44680;48.342;7.856;2022-12-01T10:06:02;34.20;;;16.35;;
58898;SDS011;44680;48.342;7.856;2022-12-01T10:08:32;32.58;;;15.43;;
58898;SDS011;44680;48.342;7.856;2022-12-01T10:11:04;34.25;;;16.35;;
58898;SDS011;44680;48.342;7.856;2022-12-01T10:13:32;34.80;;;16.08;;
58898;SDS011;44680;48.342;7.856;2022-12-01T10:18:34;33.47;;;16.58;;
58898;SDS011;44680;48.342;7.856;2022-12-01T10:21:27;35.03;;;16.65;;
58898;SDS011;44680;48.342;7.856;2022-12-01T10:30:01;33.00;;;15.40;;
58898;SDS011;44680;48.342;7.856;2022-12-01T10:35:21;36.58;;;17.08;;
58898;SDS011;44680;48.342;7.856;2022-12-01T10:37:49;31.88;;;16.52;;
58898;SDS011;44680;48.342;7.856;2022-12-01T10:40:18;35.35;;;15.88;;
58898;SDS011;44680;48.342;7.856;2022-12-01T10:42:47;37.20;;;19.13;;
58898;SDS011;44680;48.342;7.856;2022-12-01T10:45:15;33.10;;;15.65;;
58898;SDS011;44680;48.342;7.856;2022-12-01T10:50:33;33.80;;;14.95;;
58898;SDS011;44680;48.342;7.856;2022-12-01T10:52:59;31.95;;;15.85;;
58898;SDS011;44680;48.342;7.856;2022-12-01T10:55:26;34.85;;;16.95;;
58898;SDS011;44680;48.342;7.856;2022-12-01T10:57:59;34.47;;;16.45;;
58898;SDS011;44680;48.342;7.856;2022-12-01T11:00:32;34.47;;;16.33;;
58898;SDS011;44680;48.342;7.856;2022-12-01T11:03:00;32.13;;;16.15;;
58898;SDS011;44680;48.342;7.856;2022-12-01T11:05:27;33.45;;;16.08;;
58898;SDS011;44680;48.342;7.856;2022-12-01T11:07:56;32.85;;;15.85;;
58898;SDS011;44680;48.342;7.856;2022-12-01T11:10:28;37.63;;;16.08;;
58898;SDS011;44680;48.342;7.856;2022-12-01T11:12:55;39.05;;;16.48;;
58898;SDS011;44680;48.342;7.856;2022-12-01T11:15:26;39.47;;;16.67;;
58898;SDS011;44680;48.342;7.856;2022-12-01T11:18:00;34.53;;;14.73;;
58898;SDS011;44680;48.342;7.856;2022-12-01T11:20:32;35.80;;;16.70;;
58898;SDS011;44680;48.342;7.856;2022-12-01T11:25:39;32.25;;;16.02;;
58898;SDS011;44680;48.342;7.856;2022-12-01T11:28:04;31.70;;;15.77;;
58898;SDS011;44680;48.342;7.856;2022-12-01T11:30:30;36.53;;;15.57;;
58898;SDS011;44680;48.342;7.856;2022-12-01T11:33:02;34.47;;;16.55;;
58898;SDS011;44680;48.342;7.856;2022-12-01T11:35:29;35.30;;;16.35;;
58898;SDS011;44680;48.342;7.856;2022-12-01T11:37:57;32.03;;;15.45;;
58898;SDS011;44680;48.342;7.856;2022-12-01T11:40:24;35.28;;;16.13;;
58898;SDS011;44680;48.342;7.856;2022-12-01T11:42:51;32.67;;;15.23;;
58898;SDS011;44680;48.342;7.856;2022-12-01T11:45:31;35.65;;;16.08;;
58898;SDS011;44680;48.342;7.856;2022-12-01T11:51:10;32.05;;;14.88;;
58898;SDS011;44680;48.342;7.856;2022-12-01T11:53:42;33.35;;;16.45;;
58898;SDS011;44680;48.342;7.856;2022-12-01T12:01:33;35.92;;;16.52;;
58898;SDS011;44680;48.342;7.856;2022-12-01T12:14:43;33.97;;;15.65;;
58898;SDS011;44680;48.342;7.856;2022-12-01T12:22:37;31.33;;;15.05;;
58898;SDS011;44680;48.342;7.856;2022-12-01T12:25:17;31.40;;;15.27;;
58898;SDS011;44680;48.342;7.856;2022-12-01T12:30:20;32.47;;;15.82;;
58898;SDS011;44680;48.342;7.856;2022-12-01T12:33:03;31.58;;;16.20;;
58898;SDS011;44680;48.342;7.856;2022-12-01T12:35:43;32.15;;;16.02;;
58898;SDS011;44680;48.342;7.856;2022-12-01T12:38:31;32.42;;;15.27;;
58898;SDS011;44680;48.342;7.856;2022-12-01T12:41:23;32.03;;;15.52;;
58898;SDS011;44680;48.342;7.856;2022-12-01T12:49:15;30.33;;;14.95;;
58898;SDS011;44680;48.342;7.856;2022-12-01T12:57:32;33.78;;;15.73;;
58898;SDS011;44680;48.342;7.856;2022-12-01T12:59:56;32.80;;;15.82;;
58898;SDS011;44680;48.342;7.856;2022-12-01T13:02:30;35.10;;;16.23;;
58898;SDS011;44680;48.342;7.856;2022-12-01T13:05:08;32.40;;;15.85;;
58898;SDS011;44680;48.342;7.856;2022-12-01T13:07:58;34.03;;;15.68;;
58898;SDS011;44680;48.342;7.856;2022-12-01T13:10:38;33.40;;;15.45;;
58898;SDS011;44680;48.342;7.856;2022-12-01T13:16:01;33.05;;;16.27;;
58898;SDS011;44680;48.342;7.856;2022-12-01T13:21:02;31.00;;;14.98;;
58898;SDS011;44680;48.342;7.856;2022-12-01T13:23:28;30.80;;;15.27;;
58898;SDS011;44680;48.342;7.856;2022-12-01T13:25:55;36.13;;;15.13;;
58898;SDS011;44680;48.342;7.856;2022-12-01T13:28:25;34.13;;;15.27;;
58898;SDS011;44680;48.342;7.856;2022-12-01T13:31:06;33.72;;;15.32;;
58898;SDS011;44680;48.342;7.856;2022-12-01T13:33:33;29.20;;;14.40;;
58898;SDS011;44680;48.342;7.856;2022-12-01T13:36:00;33.08;;;15.10;;
58898;SDS011;44680;48.342;7.856;2022-12-01T13:38:27;33.38;;;16.63;;
58898;SDS011;44680;48.342;7.856;2022-12-01T13:41:19;34.15;;;14.95;;
58898;SDS011;44680;48.342;7.856;2022-12-01T13:46:28;31.90;;;15.20;;
58898;SDS011;44680;48.342;7.856;2022-12-01T13:48:56;32.53;;;16.08;;
58898;SDS011;44680;48.342;7.856;2022-12-01T13:51:23;31.67;;;15.85;;
58898;SDS011;44680;48.342;7.856;2022-12-01T13:54:01;32.38;;;16.05;;
58898;SDS011;44680;48.342;7.856;2022-12-01T13:56:36;31.83;;;16.17;;
58898;SDS011;44680;48.342;7.856;2022-12-01T13:59:01;32.40;;;15.40;;
58898;SDS011;44680;48.342;7.856;2022-12-01T14:09:31;31.60;;;15.63;;
58898;SDS011;44680;48.342;7.856;2022-12-01T14:12:01;32.13;;;16.00;;
58898;SDS011;44680;48.342;7.856;2022-12-01T14:14:32;33.33;;;14.82;;
58898;SDS011;44680;48.342;7.856;2022-12-01T14:16:59;32.92;;;15.18;;
58898;SDS011;44680;48.342;7.856;2022-12-01T14:21:56;32.30;;;15.07;;
58898;SDS011;44680;48.342;7.856;2022-12-01T14:24:23;31.65;;;15.25;;
58898;SDS011;44680;48.342;7.856;2022-12-01T14:26:51;30.83;;;14.60;;
58898;SDS011;44680;48.342;7.856;2022-12-01T14:34:24;32.05;;;14.50;;
58898;SDS011;44680;48.342;7.856;2022-12-01T14:39:42;30.48;;;14.77;;
58898;SDS011;44680;48.342;7.856;2022-12-01T14:44:43;33.17;;;15.07;;
58898;SDS011;44680;48.342;7.856;2022-12-01T14:52:36;39.88;;;18.30;;
58898;SDS011;44680;48.342;7.856;2022-12-01T14:55:20;33.90;;;15.50;;
58898;SDS011;44680;48.342;7.856;2022-12-01T14:58:30;39.33;;;17.08;;
58898;SDS011;44680;48.342;7.856;2022-12-01T15:00:52;35.15;;;16.08;;
58898;SDS011;44680;48.342;7.856;2022-12-01T15:03:21;33.40;;;14.43;;
58898;SDS011;44680;48.342;7.856;2022-12-01T15:05:47;35.85;;;17.90;;
58898;SDS011;44680;48.342;7.856;2022-12-01T15:08:23;50.97;;;23.23;;
58898;SDS011;44680;48.342;7.856;2022-12-01T15:10:51;38.72;;;17.65;;
58898;SDS011;44680;48.342;7.856;2022-12-01T15:13:20;44.40;;;20.30;;
58898;SDS011;44680;48.342;7.856;2022-12-01T15:16:01;40.67;;;18.50;;
58898;SDS011;44680;48.342;7.856;2022-12-01T15:18:29;39.35;;;19.20;;
58898;SDS011;44680;48.342;7.856;2022-12-01T15:20:56;40.60;;;18.75;;
58898;SDS011;44680;48.342;7.856;2022-12-01T15:23:23;35.50;;;17.17;;
58898;SDS011;44680;48.342;7.856;2022-12-01T15:25:49;45.83;;;21.45;;
58898;SDS011;44680;48.342;7.856;2022-12-01T15:28:15;34.10;;;16.70;;
58898;SDS011;44680;48.342;7.856;2022-12-01T15:30:46;35.05;;;15.52;;
58898;SDS011;44680;48.342;7.856;2022-12-01T15:33:47;30.95;;;15.80;;
58898;SDS011;44680;48.342;7.856;2022-12-01T15:36:12;36.58;;;15.40;;
58898;SDS011;44680;48.342;7.856;2022-12-01T15:38:37;30.63;;;14.65;;
58898;SDS011;44680;48.342;7.856;2022-12-01T15:41:05;33.53;;;16.13;;
58898;SDS011;44680;48.342;7.856;2022-12-01T15:43:32;31.63;;;16.13;;
58898;SDS011;44680;48.342;7.856;2022-12-01T15:46:16;33.95;;;16.05;;
58898;SDS011;44680;48.342;7.856;2022-12-01T15:48:42;31.63;;;14.48;;
58898;SDS011;44680;48.342;7.856;2022-12-01T15:51:17;35.35;;;15.95;;
58898;SDS011;44680;48.342;7.856;2022-12-01T15:53:48;33.00;;;15.15;;
58898;SDS011;44680;48.342;7.856;2022-12-01T15:56:23;33.03;;;15.73;;
58898;SDS011;44680;48.342;7.856;2022-12-01T15:58:49;32.60;;;15.45;;
58898;SDS011;44680;48.342;7.856;2022-12-01T16:01:18;30.75;;;14.80;;
58898;SDS011;44680;48.342;7.856;2022-12-01T16:03:51;32.83;;;15.38;;
58898;SDS011;44680;48.342;7.856;2022-12-01T16:06:29;31.10;;;15.53;;
58898;SDS011;44680;48.342;7.856;2022-12-01T16:09:03;34.75;;;16.77;;
58898;SDS011;44680;48.342;7.856;2022-12-01T16:11:30;35.00;;;16.20;;
58898;SDS011;44680;48.342;7.856;2022-12-01T16:19:17;35.92;;;16.88;;
58898;SDS011;44680;48.342;7.856;2022-12-01T16:24:12;34.15;;;16.17;;
58898;SDS011;44680;48.342;7.856;2022-12-01T16:26:52;30.80;;;16.15;;
58898;SDS011;44680;48.342;7.856;2022-12-01T16:29:23;35.78;;;17.38;;
58898;SDS011;44680;48.342;7.856;2022-12-01T16:31:50;32.28;;;15.77;;
58898;SDS011;44680;48.342;7.856;2022-12-01T16:34:17;37.08;;;16.17;;
58898;SDS011;44680;48.342;7.856;2022-12-01T16:36:45;35.80;;;17.23;;
58898;SDS011;44680;48.342;7.856;2022-12-01T16:39:11;36.10;;;17.73;;
58898;SDS011;44680;48.342;7.856;2022-12-01T16:41:37;35.53;;;17.20;;
58898;SDS011;44680;48.342;7.856;2022-12-01T16:44:05;33.63;;;16.83;;
58898;SDS011;44680;48.342;7.856;2022-12-01T16:46:30;35.00;;;16.58;;
58898;SDS011;44680;48.342;7.856;2022-12-01T16:48:55;36.40;;;16.77;;
58898;SDS011;44680;48.342;7.856;2022-12-01T16:51:20;34.30;;;16.58;;